createdAt,value
2023-01-19T07:05:06.905Z,-19.81
2023-01-19T07:10:11.809Z,-22.58
2023-01-19T07:15:17.256Z,-19.86
2023-01-19T07:20:22.331Z,-19.83
2023-01-19T07:25:26.615Z,-19.72
2023-01-19T07:30:30.494Z,-19.61
2023-01-19T07:35:35.519Z,-19.55
2023-01-19T07:40:39.339Z,-19.45
2023-01-19T07:45:42.997Z,-19.33
2023-01-19T07:50:48.464Z,-19.22
2023-01-19T07:55:55.047Z,-19.16
2023-01-19T08:00:58.835Z,-19.03
2023-01-19T08:06:05.187Z,-18.77
2023-01-19T08:11:08.734Z,-18.53
2023-01-19T08:16:15.740Z,-18.47
2023-01-19T08:21:21.933Z,-18.31
2023-01-19T08:26:30.127Z,-18.17
2023-01-19T08:31:34.470Z,-18.02
2023-01-19T08:36:39.722Z,-17.88
2023-01-19T08:41:43.286Z,-17.78
2023-01-19T08:46:47.279Z,-17.71
2023-01-19T08:51:52.308Z,-17.64
2023-01-19T08:56:56.175Z,-17.52
2023-01-19T09:02:00.039Z,-17.41
2023-01-19T09:12:09.417Z,-17.15
2023-01-19T09:17:14.931Z,-17.11
2023-01-19T09:22:20.328Z,-16.96
2023-01-19T09:27:36.722Z,-16.80
2023-01-19T09:38:34.636Z,-16.79
2023-01-19T09:43:40.746Z,-16.71
2023-01-19T09:48:45.978Z,-16.61
2023-01-19T09:54:05.115Z,-16.45
2023-01-19T09:59:18.679Z,-16.36
2023-01-19T10:04:30.568Z,-16.22
2023-01-19T10:09:40.233Z,-16.27
2023-01-19T10:14:47.425Z,-16.25
2023-01-19T10:20:00.454Z,-16.19
2023-01-19T10:26:04.906Z,-16.10
2023-01-19T10:43:48.157Z,-15.66
2023-01-19T10:49:43.943Z,-15.66
2023-01-19T11:48:44.463Z,-14.85
2023-01-19T11:54:52.403Z,-14.79
2023-01-19T12:00:05.422Z,-14.67
2023-01-19T12:05:14.538Z,-14.43
2023-01-19T12:10:31.980Z,-14.41
2023-01-19T12:15:39.611Z,-14.42
2023-01-19T12:21:04.821Z,-14.43
2023-01-19T12:26:42.045Z,-14.38
2023-01-19T12:31:53.590Z,-14.36
2023-01-19T12:37:01.932Z,-14.40
2023-01-19T12:42:09.266Z,-14.40
2023-01-19T12:47:27.930Z,-14.29
2023-01-19T12:52:39.157Z,-14.37
2023-01-19T12:58:02.299Z,-14.34
2023-01-19T13:03:21.683Z,-14.40
2023-01-19T13:08:29.897Z,-14.53
2023-01-19T13:13:36.725Z,-14.45
2023-01-19T13:18:44.786Z,-14.35
2023-01-19T13:23:55.239Z,-14.31
2023-01-19T13:29:08.391Z,-14.32
2023-01-19T13:34:24.463Z,-14.38
2023-01-19T13:39:31.081Z,-14.30
2023-01-19T13:44:39.479Z,-14.42
2023-01-19T13:49:44.901Z,-14.36
2023-01-19T14:01:49.141Z,-14.63
2023-01-19T14:07:28.546Z,-14.67
2023-01-19T14:13:22.749Z,-14.88
2023-01-19T14:18:52.039Z,-14.93
2023-01-19T14:24:43.071Z,-14.99
2023-01-19T14:30:27.851Z,-15.07
2023-01-19T14:35:38.288Z,-15.23
2023-01-19T14:41:00.522Z,-15.28
2023-01-19T14:47:04.680Z,-15.47
2023-01-19T14:52:21.848Z,-14.85
2023-01-19T14:57:37.649Z,-14.78
2023-01-19T15:02:58.589Z,-14.71
2023-01-19T15:08:17.484Z,-14.70
2023-01-19T15:13:29.441Z,-14.58
2023-01-19T15:18:37.105Z,-15.01
2023-01-19T15:23:43.877Z,-15.35
2023-01-19T15:28:49.420Z,-15.57
2023-01-19T15:34:00.445Z,-15.79
2023-01-19T15:39:04.903Z,-15.72
2023-01-19T15:44:12.438Z,-15.79
2023-01-19T15:49:16.980Z,-15.88
2023-01-19T15:54:21.375Z,-15.81
2023-01-19T15:59:32.846Z,-15.83
2023-01-19T16:04:37.020Z,-15.79
2023-01-19T16:09:50.016Z,-15.76
2023-01-19T16:14:55.392Z,-15.87
2023-01-19T16:19:58.996Z,-15.85
2023-01-19T16:25:02.794Z,-15.89
2023-01-19T16:30:09.159Z,-16.05
2023-01-19T16:35:13.003Z,-16.16
2023-01-19T16:40:16.876Z,-16.20
2023-01-19T16:45:21.915Z,-16.22
2023-01-19T16:50:25.582Z,-16.20
2023-01-19T16:55:29.275Z,-15.93
2023-01-19T17:00:34.313Z,-15.82
2023-01-19T17:05:38.116Z,-15.77
2023-01-19T17:10:43.643Z,-15.52
2023-01-19T17:15:49.025Z,-15.41
2023-01-19T17:20:54.975Z,-15.36
2023-01-19T17:26:01.549Z,-16.41
2023-01-19T17:31:07.749Z,-15.20
2023-01-19T17:36:12.790Z,-15.06
2023-01-19T17:41:19.719Z,-14.92
2023-01-19T17:46:26.484Z,-14.81
2023-01-19T17:51:30.776Z,-14.91
2023-01-19T17:56:37.529Z,-14.75
2023-01-19T18:01:44.978Z,-14.66
2023-01-19T18:06:51.656Z,-14.62
2023-01-19T18:11:55.455Z,-14.62
2023-01-19T18:17:00.570Z,-14.59
2023-01-19T18:22:04.106Z,-14.52
2023-01-19T18:27:07.898Z,-14.49
2023-01-19T18:32:13.342Z,-14.38
2023-01-19T18:37:17.791Z,-14.33
2023-01-19T18:42:22.129Z,-14.33
2023-01-19T18:47:27.389Z,-14.36
2023-01-19T18:52:32.401Z,-14.43
2023-01-19T18:57:36.154Z,-13.08
2023-01-19T19:02:41.200Z,-12.13
2023-01-19T19:07:45.027Z,-12.02
2023-01-19T19:12:48.992Z,-12.22
2023-01-19T19:17:54.055Z,-12.84
2023-01-19T19:22:57.981Z,-13.46
2023-01-19T19:28:21.284Z,-13.69
2023-01-19T19:33:27.466Z,-13.85
2023-01-19T19:38:34.968Z,-13.81
2023-01-19T19:43:39.470Z,-13.88
2023-01-19T19:48:44.711Z,-13.88
2023-01-19T19:53:51.364Z,-13.87
2023-01-19T19:58:56.437Z,-13.86
2023-01-19T20:04:05.745Z,-13.89
2023-01-19T20:09:10.929Z,-13.88
2023-01-19T20:14:16.210Z,-13.83
2023-01-19T20:19:21.294Z,-13.84
2023-01-19T20:24:25.008Z,-13.86
2023-01-19T20:29:28.716Z,-13.93
2023-01-19T20:34:35.921Z,-13.91
2023-01-19T20:39:40.601Z,-13.86
2023-01-19T20:44:45.033Z,-13.97
2023-01-19T20:49:50.623Z,-14.14
2023-01-19T20:54:54.821Z,-13.96
2023-01-19T20:59:59.317Z,-13.85
2023-01-19T21:05:04.512Z,-13.83
2023-01-19T21:10:11.225Z,-13.80
2023-01-19T21:15:15.146Z,-13.80
2023-01-19T21:20:21.293Z,-13.81
2023-01-19T21:25:25.136Z,-13.76
2023-01-19T21:30:29.661Z,-13.71
2023-01-19T21:35:35.034Z,-13.75
2023-01-19T21:40:40.146Z,-13.69
2023-01-19T21:45:43.964Z,-13.69
2023-01-19T21:50:57.101Z,-13.66
2023-01-19T21:56:01.249Z,-13.72
2023-01-19T22:01:06.109Z,-13.73
2023-01-19T22:06:12.149Z,-13.75
2023-01-19T22:11:19.682Z,-13.77
2023-01-19T22:16:24.179Z,-13.80
2023-01-19T22:21:32.995Z,-13.76
2023-01-19T22:26:36.989Z,-13.72
2023-01-19T22:31:41.176Z,-13.72
2023-01-19T22:36:46.438Z,-13.76
2023-01-19T22:41:50.179Z,-13.73
